Time;durP1;ratioP1;P1;durP2;ratioP2;P2;SDS_P1;SDS_P2;PMS_P1;PMS_P2;Temp;Humidity;BMP_temperature;BMP_pressure;BME280_temperature;BME280_humidity;BME280_pressure;Samples;Min_cycle;Max_cycle;Signal;HPM_P1;HPM_P2
2024/01/01 00:00:34;;;;;;;254.53;152.37;;;7.70;99.90;;;;;;5076964;28;20449;-67
2024/01/01 00:03:01;;;;;;;228.97;127.87;;;7.60;99.90;;;;;;5076270;28;20507;-68
2024/01/01 00:05:30;;;;;;;206.73;115.17;;;7.70;99.90;;;;;;5077119;28;20457;-66
2024/01/01 00:07:57;;;;;;;167.80;107.87;;;7.60;99.90;;;;;;5077858;28;20560;-67
2024/01/01 00:10:24;;;;;;;172.23;99.70;;;7.60;99.90;;;;;;5076883;28;20492;-66
2024/01/01 00:12:52;;;;;;;153.87;80.40;;;7.60;99.90;;;;;;5078018;28;20505;-66
2024/01/01 00:15:19;;;;;;;140.70;85.53;;;7.60;99.90;;;;;;5079153;28;20470;-66
2024/01/01 00:17:46;;;;;;;117.63;72.93;;;7.60;99.90;;;;;;5078608;28;20918;-66
2024/01/01 00:20:13;;;;;;;124.57;74.17;;;7.60;99.90;;;;;;5078672;28;20478;-67
2024/01/01 00:22:42;;;;;;;121.83;68.93;;;7.60;99.90;;;;;;5078756;28;20570;-67
2024/01/01 00:25:09;;;;;;;107.93;63.53;;;7.60;99.90;;;;;;5079198;28;20451;-67
2024/01/01 00:27:36;;;;;;;107.37;58.27;;;7.60;99.90;;;;;;5078554;28;20531;-67
2024/01/01 00:30:04;;;;;;;86.03;50.30;;;7.60;99.90;;;;;;5078339;28;20500;-66
2024/01/01 00:32:31;;;;;;;69.23;45.00;;;7.60;99.90;;;;;;5078698;28;20537;-66
2024/01/01 00:34:57;;;;;;;76.20;43.97;;;7.60;99.90;;;;;;5078312;28;20523;-66
2024/01/01 00:37:24;;;;;;;66.33;38.10;;;7.60;99.90;;;;;;5079424;28;20518;-66
2024/01/01 00:39:54;;;;;;;66.33;37.23;;;7.60;99.90;;;;;;5078700;28;20470;-65
2024/01/01 00:42:22;;;;;;;61.40;40.07;;;7.60;99.90;;;;;;5078307;28;20485;-68
2024/01/01 00:44:49;;;;;;;58.40;33.70;;;7.60;99.90;;;;;;5078466;28;20496;-67
2024/01/01 00:47:16;;;;;;;50.73;29.30;;;7.60;99.90;;;;;;5077940;28;20568;-67
2024/01/01 00:49:42;;;;;;;47.13;28.57;;;7.60;99.90;;;;;;5077802;28;20533;-65
2024/01/01 00:52:09;;;;;;;46.93;26.87;;;7.50;99.90;;;;;;5077364;28;20496;-66
2024/01/01 00:54:36;;;;;;;36.90;22.73;;;7.60;99.90;;;;;;5077890;28;20926;-64
2024/01/01 00:57:05;;;;;;;47.03;23.60;;;7.60;99.90;;;;;;5076039;28;20532;-63
2024/01/01 00:59:31;;;;;;;41.80;25.97;;;7.50;99.90;;;;;;5075953;28;20553;-69
2024/01/01 01:01:58;;;;;;;61.03;37.37;;;7.60;99.90;;;;;;5075861;28;20568;-66
2024/01/01 01:04:25;;;;;;;45.10;27.27;;;7.60;99.90;;;;;;5075780;28;20504;-68
2024/01/01 01:06:55;;;;;;;52.50;25.80;;;7.60;99.90;;;;;;5075912;28;20743;-65
2024/01/01 01:09:22;;;;;;;41.87;28.10;;;7.60;99.90;;;;;;5076050;28;20531;-68
2024/01/01 01:11:49;;;;;;;28.67;18.53;;;7.50;99.90;;;;;;5082388;28;20451;-68
2024/01/01 01:14:18;;;;;;;37.03;20.10;;;7.60;99.90;;;;;;5084844;28;20436;-62
2024/01/01 01:16:45;;;;;;;33.37;18.00;;;7.50;99.90;;;;;;5088215;28;20438;-67
2024/01/01 01:19:12;;;;;;;36.83;19.43;;;7.60;99.90;;;;;;5075692;28;20524;-66
2024/01/01 01:21:39;;;;;;;28.23;20.13;;;7.60;99.90;;;;;;5075500;28;20516;-66
2024/01/01 01:24:06;;;;;;;40.50;23.40;;;7.60;99.90;;;;;;5076104;28;20455;-66
2024/01/01 01:26:33;;;;;;;31.13;18.90;;;7.60;99.90;;;;;;5075654;28;20502;-67
2024/01/01 01:29:00;;;;;;;36.03;21.20;;;7.50;99.90;;;;;;5075205;28;20506;-67
2024/01/01 01:31:28;;;;;;;40.13;21.27;;;7.50;99.90;;;;;;5075348;28;20452;-67
2024/01/01 01:33:55;;;;;;;33.30;21.53;;;7.50;99.90;;;;;;5075489;28;20516;-66
2024/01/01 01:36:22;;;;;;;38.13;24.83;;;7.50;99.90;;;;;;5081755;28;20443;-66
2024/01/01 01:38:49;;;;;;;41.77;25.53;;;7.50;99.90;;;;;;5077246;28;20527;-66
2024/01/01 01:41:16;;;;;;;34.03;20.10;;;7.50;99.90;;;;;;5075556;28;21029;-67
2024/01/01 01:43:42;;;;;;;32.03;19.60;;;7.50;99.90;;;;;;5078540;28;21020;-65
2024/01/01 01:46:10;;;;;;;28.37;18.20;;;7.50;99.90;;;;;;5081868;28;20481;-66
2024/01/01 01:48:38;;;;;;;37.20;17.93;;;7.60;99.90;;;;;;5084161;28;20480;-68
2024/01/01 01:51:06;;;;;;;25.13;16.13;;;7.50;99.90;;;;;;5084378;28;20521;-67
2024/01/01 01:53:33;;;;;;;29.03;17.37;;;7.60;99.90;;;;;;5077628;28;20478;-67
2024/01/01 01:56:04;;;;;;;28.97;17.37;;;7.60;99.90;;;;;;5075766;28;20561;-66
2024/01/01 01:58:32;;;;;;;29.33;15.97;;;7.50;99.90;;;;;;5075236;28;20507;-66
2024/01/01 02:00:58;;;;;;;28.13;18.13;;;7.60;99.90;;;;;;5074756;28;20476;-65
2024/01/01 02:03:25;;;;;;;22.93;15.10;;;7.60;99.90;;;;;;5075235;28;20901;-66
2024/01/01 02:05:55;;;;;;;23.90;14.93;;;7.60;99.90;;;;;;5074652;28;20455;-68
2024/01/01 02:08:22;;;;;;;29.50;14.87;;;7.60;99.90;;;;;;5074862;28;20524;-66
2024/01/01 02:10:49;;;;;;;30.67;15.80;;;7.50;99.90;;;;;;5074856;28;20512;-67
2024/01/01 02:13:24;;;;;;;22.50;11.90;;;7.50;99.90;;;;;;5074781;28;20894;-66
2024/01/01 02:15:50;;;;;;;21.67;10.93;;;7.50;99.90;;;;;;5074786;28;20440;-66
2024/01/01 02:18:17;;;;;;;15.00;12.23;;;7.50;99.90;;;;;;5074695;28;20528;-64
2024/01/01 02:20:44;;;;;;;17.70;12.40;;;7.50;99.90;;;;;;5074676;28;20451;-65
2024/01/01 02:23:14;;;;;;;19.30;10.27;;;7.40;99.90;;;;;;5074844;28;20573;-67
2024/01/01 02:25:44;;;;;;;21.57;11.60;;;7.50;99.90;;;;;;5074304;28;20544;-67
2024/01/01 02:28:11;;;;;;;18.00;10.03;;;7.40;99.90;;;;;;5074596;28;20460;-67
2024/01/01 02:30:38;;;;;;;19.57;10.60;;;7.50;99.90;;;;;;5074706;28;20491;-67
2024/01/01 02:33:08;;;;;;;13.40;9.30;;;7.50;99.90;;;;;;5074922;28;20830;-67
2024/01/01 02:35:38;;;;;;;17.90;9.17;;;7.40;99.90;;;;;;5074630;28;20441;-66
2024/01/01 02:38:07;;;;;;;12.87;8.30;;;7.40;99.90;;;;;;5074715;28;20487;-67
2024/01/01 02:40:36;;;;;;;17.77;9.87;;;7.40;99.90;;;;;;5074868;28;20506;-66
2024/01/01 02:43:03;;;;;;;21.73;9.10;;;7.40;99.90;;;;;;5074752;28;20863;-66
2024/01/01 02:45:31;;;;;;;17.00;9.37;;;7.40;99.90;;;;;;5074374;28;20522;-68
2024/01/01 02:47:58;;;;;;;16.10;9.10;;;7.40;99.90;;;;;;5074868;28;20461;-67
2024/01/01 02:50:26;;;;;;;15.00;8.63;;;7.40;99.90;;;;;;5075459;28;20477;-66
2024/01/01 02:52:53;;;;;;;14.47;9.80;;;7.40;99.90;;;;;;5074668;28;20437;-66
2024/01/01 02:55:20;;;;;;;13.80;9.13;;;7.40;99.90;;;;;;5074598;28;20544;-64
2024/01/01 02:57:48;;;;;;;15.33;9.70;;;7.30;99.90;;;;;;5074258;28;20972;-67
2024/01/01 03:00:16;;;;;;;14.23;9.40;;;7.30;99.90;;;;;;5074696;28;20445;-66
2024/01/01 03:02:43;;;;;;;18.77;9.00;;;7.30;99.90;;;;;;5074139;28;20499;-68
2024/01/01 03:05:10;;;;;;;19.83;9.60;;;7.30;99.90;;;;;;5074197;28;20480;-65
2024/01/01 03:07:37;;;;;;;21.53;9.53;;;7.30;99.90;;;;;;5074226;28;20520;-66
2024/01/01 03:10:05;;;;;;;14.07;8.70;;;7.30;99.90;;;;;;5074344;28;20464;-65
2024/01/01 03:12:33;;;;;;;13.47;8.70;;;7.20;99.90;;;;;;5074258;28;20448;-64
2024/01/01 03:15:03;;;;;;;12.17;8.10;;;7.20;99.90;;;;;;5074212;28;20488;-66
2024/01/01 03:17:30;;;;;;;13.50;8.40;;;7.20;99.90;;;;;;5074134;28;20451;-66
2024/01/01 03:19:57;;;;;;;13.73;8.33;;;7.20;99.90;;;;;;5074225;28;20949;-65
2024/01/01 03:22:24;;;;;;;19.37;8.97;;;7.20;99.90;;;;;;5074269;28;20490;-67
2024/01/01 03:24:51;;;;;;;15.53;8.17;;;7.20;99.90;;;;;;5074110;28;20541;-65
2024/01/01 03:27:18;;;;;;;14.30;8.33;;;7.20;99.90;;;;;;5074489;28;20471;-65
2024/01/01 03:29:45;;;;;;;16.60;8.83;;;7.20;99.90;;;;;;5074004;28;20960;-65
2024/01/01 03:32:13;;;;;;;23.63;9.80;;;7.10;99.90;;;;;;5074044;28;20444;-68
2024/01/01 03:34:40;;;;;;;17.00;10.10;;;7.10;99.90;;;;;;5074311;28;20531;-67
2024/01/01 03:37:07;;;;;;;16.57;10.00;;;7.10;99.90;;;;;;5074235;28;20558;-67
2024/01/01 03:39:33;;;;;;;16.60;10.10;;;7.10;99.90;;;;;;5076672;28;20491;-67
2024/01/01 03:42:00;;;;;;;15.00;9.23;;;7.10;99.90;;;;;;5077669;28;20571;-67
2024/01/01 03:44:27;;;;;;;15.30;9.90;;;7.10;99.90;;;;;;5077773;28;20467;-66
2024/01/01 03:46:56;;;;;;;17.10;8.73;;;7.10;99.90;;;;;;5077464;28;20519;-66
2024/01/01 03:49:24;;;;;;;20.17;11.00;;;7.10;99.90;;;;;;5077395;28;20476;-66
2024/01/01 03:51:52;;;;;;;16.10;10.13;;;7.10;99.90;;;;;;5077372;28;20452;-66
2024/01/01 03:54:19;;;;;;;20.97;10.37;;;7.10;99.90;;;;;;5077591;28;20444;-67
2024/01/01 03:56:45;;;;;;;17.47;8.53;;;7.10;99.90;;;;;;5078197;28;20522;-65
2024/01/01 03:59:12;;;;;;;18.97;10.83;;;7.10;99.90;;;;;;5078490;28;20759;-66
2024/01/01 04:01:39;;;;;;;16.87;8.57;;;7.10;99.90;;;;;;5079283;28;20474;-65
2024/01/01 04:04:06;;;;;;;14.73;9.43;;;7.10;99.90;;;;;;5079725;28;20477;-66
2024/01/01 04:06:35;;;;;;;23.43;11.63;;;7.10;99.90;;;;;;5079127;28;20480;-65
2024/01/01 04:09:01;;;;;;;17.33;8.87;;;7.10;99.90;;;;;;5079904;28;20506;-66
2024/01/01 04:11:29;;;;;;;24.43;11.03;;;7.10;99.90;;;;;;5079200;28;20489;-65
2024/01/01 04:13:56;;;;;;;20.40;10.93;;;7.10;99.90;;;;;;5079906;28;20778;-66
2024/01/01 04:16:23;;;;;;;24.60;13.03;;;7.00;99.90;;;;;;5079328;28;20781;-65
2024/01/01 04:18:50;;;;;;;40.10;15.87;;;7.00;99.90;;;;;;5079012;28;20837;-66
2024/01/01 04:21:17;;;;;;;22.47;13.97;;;7.00;99.90;;;;;;5078748;28;20499;-66
2024/01/01 04:23:45;;;;;;;19.57;11.80;;;7.00;99.90;;;;;;5079994;28;20500;-66
2024/01/01 04:26:13;;;;;;;19.83;11.13;;;7.00;99.90;;;;;;5080467;28;20446;-66
2024/01/01 04:28:39;;;;;;;20.90;13.17;;;7.00;99.90;;;;;;5080444;28;20488;-65
2024/01/01 04:31:06;;;;;;;19.70;12.53;;;7.00;99.90;;;;;;5080256;28;21001;-66
2024/01/01 04:33:35;;;;;;;30.60;13.43;;;7.00;99.90;;;;;;5080585;28;20492;-67
2024/01/01 04:36:03;;;;;;;14.83;10.37;;;6.90;99.90;;;;;;5080035;28;20469;-66
2024/01/01 04:38:30;;;;;;;20.30;11.10;;;7.00;99.90;;;;;;5080639;28;20469;-65
2024/01/01 04:40:58;;;;;;;21.40;11.27;;;7.00;99.90;;;;;;5080446;28;20484;-66
2024/01/01 04:43:26;;;;;;;18.90;10.20;;;7.00;99.90;;;;;;5080289;28;20511;-66
2024/01/01 04:45:53;;;;;;;18.30;11.47;;;7.00;99.90;;;;;;5080367;28;20480;-65
2024/01/01 04:48:22;;;;;;;16.90;10.60;;;7.00;99.90;;;;;;5080288;28;20506;-66
2024/01/01 04:50:49;;;;;;;17.83;11.60;;;7.00;99.90;;;;;;5079969;28;20935;-68
2024/01/01 04:53:19;;;;;;;19.67;11.57;;;7.10;99.90;;;;;;5080526;28;20437;-64
2024/01/01 04:55:46;;;;;;;25.43;12.93;;;7.10;99.90;;;;;;5080557;28;20598;-65
2024/01/01 04:58:16;;;;;;;21.77;12.47;;;7.10;99.90;;;;;;5080205;28;20480;-67
2024/01/01 05:00:43;;;;;;;19.40;11.27;;;7.10;99.90;;;;;;5080284;28;20488;-65
2024/01/01 05:03:10;;;;;;;23.60;11.03;;;7.10;99.90;;;;;;5080098;28;20528;-68
2024/01/01 05:05:37;;;;;;;21.53;11.70;;;7.10;99.90;;;;;;5080360;28;20485;-65
2024/01/01 05:08:04;;;;;;;12.43;9.90;;;7.20;99.90;;;;;;5080429;28;20536;-65
2024/01/01 05:10:31;;;;;;;14.80;9.07;;;7.20;99.90;;;;;;5079604;28;20623;-67
2024/01/01 05:12:58;;;;;;;17.20;11.03;;;7.20;99.90;;;;;;5079585;28;20438;-67
2024/01/01 05:15:27;;;;;;;14.60;8.73;;;7.20;99.90;;;;;;5079483;28;20926;-66
2024/01/01 05:17:54;;;;;;;13.70;8.13;;;7.20;99.90;;;;;;5080088;28;20510;-66
2024/01/01 05:20:21;;;;;;;14.73;10.00;;;7.30;99.90;;;;;;5080569;28;20487;-66
2024/01/01 05:22:48;;;;;;;13.20;9.43;;;7.20;99.90;;;;;;5079610;28;20501;-66
2024/01/01 05:25:15;;;;;;;21.70;9.13;;;7.30;99.90;;;;;;5080226;28;20526;-66
2024/01/01 05:27:42;;;;;;;16.83;9.30;;;7.20;99.90;;;;;;5079926;28;20532;-66
2024/01/01 05:30:10;;;;;;;23.83;8.73;;;7.30;99.90;;;;;;5080616;28;20509;-67
2024/01/01 05:32:38;;;;;;;17.47;8.47;;;7.30;99.90;;;;;;5084590;28;20562;-66
2024/01/01 05:35:06;;;;;;;17.23;7.47;;;7.30;99.90;;;;;;5084407;28;20444;-66
2024/01/01 05:37:32;;;;;;;15.60;7.73;;;7.30;99.90;;;;;;5084875;28;20556;-66
2024/01/01 05:39:59;;;;;;;12.73;7.13;;;7.30;99.90;;;;;;5084319;28;20482;-66
2024/01/01 05:42:28;;;;;;;16.13;8.93;;;7.30;99.90;;;;;;5086318;28;20496;-65
2024/01/01 05:44:55;;;;;;;15.20;7.60;;;7.30;99.90;;;;;;5086720;28;20763;-66
2024/01/01 05:47:21;;;;;;;13.17;7.27;;;7.30;99.90;;;;;;5088436;28;20459;-66
2024/01/01 05:49:54;;;;;;;12.00;7.63;;;7.30;99.90;;;;;;5086951;28;20447;-66
2024/01/01 05:52:21;;;;;;;14.37;8.60;;;7.30;99.90;;;;;;5094344;28;20959;-67
2024/01/01 05:54:48;;;;;;;17.37;9.23;;;7.20;99.90;;;;;;5094297;28;20429;-68
2024/01/01 05:57:15;;;;;;;17.07;9.40;;;7.30;99.90;;;;;;5093938;28;20464;-66
2024/01/01 05:59:42;;;;;;;14.00;7.70;;;7.30;99.90;;;;;;5093674;28;20490;-65
2024/01/01 06:02:09;;;;;;;11.37;6.90;;;7.30;99.90;;;;;;5092905;28;20465;-67
2024/01/01 06:04:36;;;;;;;10.10;7.20;;;7.30;99.90;;;;;;5093753;28;20464;-66
2024/01/01 06:07:04;;;;;;;16.17;8.00;;;7.30;99.90;;;;;;5093562;28;20470;-66
2024/01/01 06:09:31;;;;;;;10.73;6.30;;;7.40;99.90;;;;;;5093907;28;20460;-67
2024/01/01 06:11:58;;;;;;;13.50;6.90;;;7.40;99.90;;;;;;5093685;28;20465;-65
2024/01/01 06:14:25;;;;;;;14.03;7.10;;;7.30;99.90;;;;;;5093650;28;20468;-67
2024/01/01 06:16:52;;;;;;;14.87;7.60;;;7.40;99.90;;;;;;5093813;28;20466;-66
2024/01/01 06:19:18;;;;;;;13.90;7.00;;;7.30;99.90;;;;;;5093447;28;20434;-66
2024/01/01 06:21:45;;;;;;;14.07;7.20;;;7.30;99.90;;;;;;5093082;28;20456;-67
2024/01/01 06:24:14;;;;;;;19.03;6.80;;;7.40;99.90;;;;;;5087198;28;20532;-67
2024/01/01 06:26:39;;;;;;;12.60;7.50;;;7.40;99.90;;;;;;5084130;28;20466;-65
2024/01/01 06:29:06;;;;;;;10.57;6.90;;;7.30;99.90;;;;;;5083456;28;20458;-66
2024/01/01 06:31:33;;;;;;;15.10;7.67;;;7.30;99.90;;;;;;5084220;28;20237;-66
2024/01/01 06:34:01;;;;;;;12.17;6.63;;;7.30;99.90;;;;;;5084400;28;20488;-66
2024/01/01 06:36:28;;;;;;;13.87;8.37;;;7.30;99.90;;;;;;5084585;28;20815;-66
2024/01/01 06:38:55;;;;;;;15.53;7.77;;;7.30;99.90;;;;;;5083774;28;20470;-67
2024/01/01 06:41:23;;;;;;;17.77;7.67;;;7.30;99.90;;;;;;5083724;28;20476;-65
2024/01/01 06:43:51;;;;;;;17.77;9.00;;;7.20;99.90;;;;;;5083931;28;20492;-65
2024/01/01 06:46:18;;;;;;;15.53;9.30;;;7.20;99.90;;;;;;5084207;28;20445;-64
2024/01/01 06:48:45;;;;;;;13.07;7.73;;;7.30;99.90;;;;;;5084228;28;20493;-64
2024/01/01 06:51:11;;;;;;;12.90;7.00;;;7.30;99.90;;;;;;5084181;28;20476;-67
2024/01/01 06:53:39;;;;;;;18.90;7.60;;;7.30;99.90;;;;;;5084220;28;20446;-67
2024/01/01 06:56:06;;;;;;;13.70;7.80;;;7.30;99.90;;;;;;5083910;28;20900;-67
2024/01/01 06:58:34;;;;;;;9.00;6.63;;;7.30;99.90;;;;;;5084404;28;20537;-65
2024/01/01 07:01:02;;;;;;;10.30;6.07;;;7.20;99.90;;;;;;5084226;28;20437;-65
2024/01/01 07:03:29;;;;;;;16.00;7.00;;;7.20;99.90;;;;;;5084347;28;20491;-66
2024/01/01 07:05:56;;;;;;;12.47;7.10;;;7.20;99.90;;;;;;5083363;28;20449;-66
2024/01/01 07:08:23;;;;;;;9.27;6.50;;;7.20;99.90;;;;;;5083861;28;20461;-66
2024/01/01 07:10:50;;;;;;;8.80;5.83;;;7.20;99.90;;;;;;5083842;28;20507;-65
2024/01/01 07:13:17;;;;;;;13.93;6.53;;;7.10;99.90;;;;;;5086249;28;20468;-65
2024/01/01 07:15:45;;;;;;;7.50;5.70;;;7.10;99.90;;;;;;5086989;28;20449;-66
2024/01/01 07:18:12;;;;;;;11.43;5.80;;;7.20;99.90;;;;;;5083154;28;20464;-67
2024/01/01 07:20:39;;;;;;;12.40;6.90;;;7.20;99.90;;;;;;5082172;28;20520;-67
2024/01/01 07:23:05;;;;;;;13.70;5.63;;;7.10;99.90;;;;;;5081606;28;20573;-66
2024/01/01 07:25:32;;;;;;;12.10;7.13;;;7.10;99.90;;;;;;5081646;28;20520;-66
2024/01/01 07:27:59;;;;;;;11.90;5.80;;;7.10;99.90;;;;;;5080792;28;20905;-65
2024/01/01 07:30:27;;;;;;;15.07;6.27;;;7.20;99.90;;;;;;5079527;28;20497;-66
2024/01/01 07:32:55;;;;;;;9.60;5.83;;;7.10;99.90;;;;;;5079969;28;20532;-66
2024/01/01 07:35:22;;;;;;;13.13;7.13;;;7.10;99.90;;;;;;5079981;28;20500;-66
2024/01/01 07:37:48;;;;;;;13.50;5.37;;;7.20;99.90;;;;;;5078833;28;20528;-66
2024/01/01 07:40:15;;;;;;;10.00;6.20;;;7.10;99.90;;;;;;5077771;28;20547;-66
2024/01/01 07:42:42;;;;;;;12.30;5.20;;;7.10;99.90;;;;;;5077510;28;20476;-67
2024/01/01 07:45:10;;;;;;;12.87;5.27;;;7.10;99.90;;;;;;5077481;28;20505;-64
2024/01/01 07:47:37;;;;;;;13.90;6.90;;;7.10;99.90;;;;;;5077628;28;20425;-67
2024/01/01 07:50:07;;;;;;;11.80;5.70;;;7.10;99.90;;;;;;5077679;28;20544;-66
2024/01/01 07:52:34;;;;;;;9.10;5.60;;;7.00;99.90;;;;;;5077540;28;20430;-66
2024/01/01 07:55:04;;;;;;;12.47;5.83;;;7.10;99.90;;;;;;5077403;28;20963;-65
2024/01/01 07:57:31;;;;;;;14.50;6.90;;;7.10;99.90;;;;;;5077429;28;20462;-66
2024/01/01 07:59:58;;;;;;;7.30;4.83;;;7.10;99.90;;;;;;5077442;28;20487;-66
2024/01/01 08:02:25;;;;;;;7.93;5.50;;;7.10;99.90;;;;;;5077588;28;20898;-67
2024/01/01 08:04:53;;;;;;;12.57;6.90;;;7.20;99.90;;;;;;5077434;28;20488;-67
2024/01/01 08:07:21;;;;;;;11.97;5.37;;;7.20;99.90;;;;;;5077491;28;20861;-67
2024/01/01 08:09:48;;;;;;;14.03;5.80;;;7.20;99.90;;;;;;5077219;28;20470;-68
2024/01/01 08:12:15;;;;;;;9.17;5.87;;;7.20;99.90;;;;;;5077355;28;20438;-67
2024/01/01 08:14:42;;;;;;;16.17;6.03;;;7.20;99.90;;;;;;5077366;28;20937;-66
2024/01/01 08:17:09;;;;;;;9.93;4.77;;;7.30;99.90;;;;;;5077369;28;20842;-66
2024/01/01 08:19:36;;;;;;;13.30;7.17;;;7.30;99.90;;;;;;5077222;28;20969;-67
2024/01/01 08:22:05;;;;;;;7.63;4.27;;;7.30;99.90;;;;;;5077173;28;20825;-66
2024/01/01 08:24:34;;;;;;;11.87;6.20;;;7.40;99.90;;;;;;5076125;28;20475;-68
2024/01/01 08:27:00;;;;;;;11.90;5.13;;;7.40;99.90;;;;;;5076980;28;20543;-68
2024/01/01 08:29:27;;;;;;;10.57;5.20;;;7.40;99.90;;;;;;5076708;28;20990;-65
2024/01/01 08:31:56;;;;;;;9.63;5.13;;;7.50;99.90;;;;;;5076853;28;20465;-65
2024/01/01 08:34:22;;;;;;;7.00;4.00;;;7.60;99.90;;;;;;5076987;28;20452;-66
2024/01/01 08:36:50;;;;;;;8.40;3.83;;;7.80;99.90;;;;;;5076457;28;20520;-67
2024/01/01 08:39:16;;;;;;;7.10;3.87;;;7.80;99.90;;;;;;5076811;28;20500;-66
2024/01/01 08:41:45;;;;;;;6.73;3.90;;;7.80;99.90;;;;;;5077773;28;20562;-65
2024/01/01 08:44:12;;;;;;;8.27;5.17;;;7.80;99.90;;;;;;5078396;28;20473;-65
2024/01/01 08:46:41;;;;;;;7.53;3.67;;;7.80;99.90;;;;;;5079952;28;20843;-66
2024/01/01 08:49:08;;;;;;;6.43;3.77;;;7.90;99.90;;;;;;5080178;28;20473;-64
2024/01/01 08:51:35;;;;;;;8.00;3.90;;;8.00;99.90;;;;;;5078999;28;20456;-66
2024/01/01 08:54:03;;;;;;;5.63;4.10;;;8.10;99.90;;;;;;5077608;28;20468;-66
2024/01/01 08:56:30;;;;;;;6.53;3.90;;;8.10;99.90;;;;;;5076448;28;20485;-67
2024/01/01 08:58:58;;;;;;;7.57;4.53;;;8.20;99.90;;;;;;5076211;28;20532;-68
2024/01/01 09:01:25;;;;;;;6.90;3.70;;;8.20;99.90;;;;;;5075877;28;20536;-68
2024/01/01 09:03:56;;;;;;;9.07;3.50;;;8.40;99.90;;;;;;5076126;28;20884;-67
2024/01/01 09:06:23;;;;;;;6.07;3.10;;;8.40;99.90;;;;;;5075799;28;20463;-67
2024/01/01 09:08:50;;;;;;;4.80;2.83;;;8.50;99.90;;;;;;5075766;28;20441;-65
2024/01/01 09:11:17;;;;;;;11.57;3.53;;;8.60;99.90;;;;;;5075945;28;20529;-67
2024/01/01 09:13:44;;;;;;;7.07;3.60;;;8.70;99.90;;;;;;5075620;28;20904;-66
2024/01/01 09:16:12;;;;;;;6.93;3.47;;;8.80;99.90;;;;;;5075607;28;20530;-67
2024/01/01 09:18:39;;;;;;;6.00;3.23;;;8.70;99.90;;;;;;5075826;28;20516;-66
2024/01/01 09:21:06;;;;;;;8.90;2.90;;;8.60;99.90;;;;;;5075455;28;20444;-68
2024/01/01 09:23:33;;;;;;;9.27;2.83;;;8.60;99.90;;;;;;5078653;28;20527;-67
2024/01/01 09:26:00;;;;;;;6.40;3.30;;;8.60;99.90;;;;;;5080021;28;20485;-68
2024/01/01 09:28:26;;;;;;;7.77;3.70;;;8.60;99.90;;;;;;5086104;28;20537;-67
2024/01/01 09:30:55;;;;;;;6.87;3.27;;;8.60;99.90;;;;;;5089568;28;20446;-67
2024/01/01 09:33:23;;;;;;;11.03;2.87;;;8.60;99.90;;;;;;5091299;28;20466;-66
2024/01/01 09:35:51;;;;;;;5.07;2.73;;;8.60;99.90;;;;;;5092197;28;20448;-66
2024/01/01 09:38:18;;;;;;;4.70;2.67;;;8.60;99.90;;;;;;5088331;28;20470;-66
2024/01/01 09:40:47;;;;;;;3.40;2.70;;;8.60;99.90;;;;;;5082429;28;20443;-66
2024/01/01 09:43:19;;;;;;;5.70;3.13;;;8.60;99.90;;;;;;5081912;28;20817;-67
2024/01/01 09:45:48;;;;;;;7.90;3.07;;;8.50;99.90;;;;;;5084232;28;20446;-67
2024/01/01 09:48:15;;;;;;;8.80;3.33;;;8.50;99.90;;;;;;5081216;28;20446;-66
2024/01/01 09:50:44;;;;;;;9.57;4.10;;;8.50;99.90;;;;;;5091706;28;20418;-66
2024/01/01 09:53:12;;;;;;;5.07;2.97;;;8.50;99.90;;;;;;5092619;28;20450;-66
2024/01/01 09:55:39;;;;;;;6.40;3.40;;;8.50;99.90;;;;;;5083437;28;20465;-67
2024/01/01 09:58:06;;;;;;;6.20;3.07;;;8.50;99.90;;;;;;5080526;28;20476;-68
2024/01/01 10:00:33;;;;;;;10.83;4.90;;;8.60;99.90;;;;;;5078519;28;20477;-65
2024/01/01 10:03:10;;;;;;;8.27;4.43;;;8.60;99.90;;;;;;5079387;28;20530;-67
2024/01/01 10:05:38;;;;;;;12.67;5.77;;;8.60;99.90;;;;;;5076706;28;20495;-66
2024/01/01 10:08:11;;;;;;;11.80;4.87;;;8.60;99.90;;;;;;5076630;28;20756;-67
2024/01/01 10:10:38;;;;;;;6.20;3.10;;;8.60;99.90;;;;;;5077060;28;20479;-65
2024/01/01 10:13:09;;;;;;;5.00;3.17;;;8.60;99.90;;;;;;5076851;28;20443;-67
2024/01/01 10:15:38;;;;;;;4.57;2.83;;;8.60;99.90;;;;;;5077280;28;20467;-65
2024/01/01 10:18:10;;;;;;;6.50;2.97;;;8.60;99.90;;;;;;5076805;28;20441;-66
2024/01/01 10:20:37;;;;;;;6.50;4.20;;;8.60;99.90;;;;;;5076372;28;20492;-67
2024/01/01 10:23:28;;;;;;;9.20;4.60;;;8.60;99.90;;;;;;5076773;28;20441;-67
2024/01/01 10:26:09;;;;;;;7.23;2.80;;;8.60;99.90;;;;;;5076120;28;20499;-67
2024/01/01 10:28:36;;;;;;;6.53;3.23;;;8.70;99.90;;;;;;5076872;28;20443;-66
2024/01/01 10:31:04;;;;;;;6.60;4.53;;;8.80;99.90;;;;;;5075597;28;20510;-66
2024/01/01 10:33:32;;;;;;;30.53;10.60;;;8.80;99.90;;;;;;5074576;28;20477;-65
2024/01/01 10:36:03;;;;;;;17.37;9.37;;;9.00;99.90;;;;;;5074538;28;20977;-65
2024/01/01 10:38:41;;;;;;;6.03;3.83;;;9.90;99.90;;;;;;5074818;28;20437;-66
2024/01/01 10:41:11;;;;;;;7.33;4.00;;;10.10;99.90;;;;;;5074368;28;20531;-65
2024/01/01 10:43:40;;;;;;;9.30;3.67;;;9.90;99.90;;;;;;5074470;28;20489;-65
2024/01/01 10:46:07;;;;;;;4.93;3.13;;;9.70;99.90;;;;;;5074513;28;20488;-65
2024/01/01 10:48:36;;;;;;;5.43;3.60;;;9.50;99.90;;;;;;5077934;28;20465;-66
2024/01/01 10:51:24;;;;;;;6.50;3.13;;;9.30;99.90;;;;;;5078779;28;20450;-65
2024/01/01 10:54:32;;;;;;;8.63;4.03;;;9.20;99.90;;;;;;5078322;28;20457;-66
2024/01/01 10:57:13;;;;;;;7.67;3.57;;;9.10;99.90;;;;;;5078939;28;20464;-64
2024/01/01 10:59:45;;;;;;;7.37;4.40;;;9.00;99.90;;;;;;5078224;28;20527;-66
2024/01/01 11:02:12;;;;;;;6.23;3.30;;;9.00;99.90;;;;;;5078116;28;20465;-66
2024/01/01 11:04:39;;;;;;;7.27;3.00;;;9.00;99.90;;;;;;5078106;28;20994;-65
2024/01/01 11:07:06;;;;;;;7.60;3.00;;;8.90;99.90;;;;;;5077928;28;20484;-64
2024/01/01 11:09:34;;;;;;;6.07;3.53;;;8.90;99.90;;;;;;5077783;28;20465;-65
2024/01/01 11:12:05;;;;;;;7.33;3.47;;;8.90;99.90;;;;;;5078202;28;20438;-65
2024/01/01 11:14:37;;;;;;;6.10;3.13;;;8.90;99.90;;;;;;5078118;28;20496;-66
2024/01/01 11:17:06;;;;;;;7.90;3.73;;;8.80;99.90;;;;;;5078143;28;20429;-67
2024/01/01 11:19:42;;;;;;;6.50;3.70;;;8.80;99.90;;;;;;5078734;28;20538;-65
2024/01/01 11:22:31;;;;;;;8.37;5.07;;;8.80;99.90;;;;;;5077804;28;20472;-66
2024/01/01 11:25:03;;;;;;;7.83;3.80;;;8.80;99.90;;;;;;5077600;28;20984;-65
2024/01/01 11:27:34;;;;;;;6.67;3.23;;;8.90;99.90;;;;;;5077685;28;20438;-67
2024/01/01 11:30:02;;;;;;;12.40;3.67;;;8.90;99.90;;;;;;5077968;28;20510;-66
2024/01/01 11:32:28;;;;;;;7.70;3.37;;;8.90;99.90;;;;;;5077802;28;20528;-66
2024/01/01 11:35:06;;;;;;;8.70;4.27;;;8.90;99.90;;;;;;5078384;28;20484;-65
2024/01/01 11:37:33;;;;;;;6.47;3.53;;;8.90;99.90;;;;;;5077734;28;20774;-65
2024/01/01 11:40:00;;;;;;;7.70;3.17;;;8.90;99.90;;;;;;5078307;28;20456;-67
2024/01/01 11:42:29;;;;;;;7.53;2.90;;;8.90;99.90;;;;;;5077613;28;21033;-66
2024/01/01 11:45:12;;;;;;;6.10;3.50;;;8.90;99.90;;;;;;5078358;28;20520;-65
2024/01/01 11:47:40;;;;;;;11.07;3.70;;;9.00;99.90;;;;;;5077192;28;20473;-67
2024/01/01 11:50:08;;;;;;;11.37;4.60;;;9.20;99.90;;;;;;5077605;28;20445;-65
2024/01/01 11:52:35;;;;;;;6.27;3.03;;;9.30;99.90;;;;;;5077391;28;20472;-66
2024/01/01 11:55:03;;;;;;;6.97;3.57;;;9.40;99.90;;;;;;5077574;28;20512;-66
2024/01/01 11:57:31;;;;;;;8.13;3.40;;;9.40;99.90;;;;;;5077043;28;20447;-66
2024/01/01 11:59:58;;;;;;;6.80;3.73;;;9.40;99.90;;;;;;5076187;28;20522;-65
2024/01/01 12:02:25;;;;;;;6.50;3.20;;;9.40;99.90;;;;;;5077394;28;20542;-66
2024/01/01 12:04:54;;;;;;;4.93;2.50;;;9.40;99.90;;;;;;5077109;28;20559;-65
2024/01/01 12:07:28;;;;;;;6.93;3.00;;;9.40;99.90;;;;;;5078121;28;20521;-65
2024/01/01 12:10:04;;;;;;;13.33;4.03;;;9.40;99.90;;;;;;5078093;28;20482;-65
2024/01/01 12:12:32;;;;;;;9.70;3.13;;;9.40;99.90;;;;;;5077066;28;20437;-66
2024/01/01 12:15:13;;;;;;;7.43;3.33;;;9.40;99.90;;;;;;5077660;28;20470;-63
2024/01/01 12:17:44;;;;;;;7.53;3.50;;;9.30;99.90;;;;;;5077086;28;20473;-65
2024/01/01 12:20:15;;;;;;;6.80;3.03;;;9.30;99.90;;;;;;5077763;28;20500;-67
2024/01/01 12:22:42;;;;;;;4.07;2.40;;;9.30;99.90;;;;;;5076943;28;20488;-66
2024/01/01 12:25:15;;;;;;;11.80;2.53;;;9.40;99.90;;;;;;5076847;28;20539;-64
2024/01/01 12:27:44;;;;;;;6.73;2.33;;;9.40;99.90;;;;;;5076542;28;20882;-66
2024/01/01 12:30:24;;;;;;;4.73;2.20;;;9.40;99.90;;;;;;5076742;28;20450;-64
2024/01/01 12:32:51;;;;;;;3.97;2.13;;;9.40;99.90;;;;;;5076804;28;20426;-63
2024/01/01 12:35:19;;;;;;;7.53;2.30;;;9.40;99.90;;;;;;5076402;28;20895;-65
2024/01/01 12:37:48;;;;;;;6.53;3.57;;;9.40;99.90;;;;;;5076308;28;20544;-62
2024/01/01 12:40:15;;;;;;;3.70;2.40;;;9.50;99.90;;;;;;5076513;28;20570;-66
2024/01/01 12:42:44;;;;;;;4.83;2.30;;;9.50;99.90;;;;;;5077890;28;20610;-64
2024/01/01 12:45:12;;;;;;;7.30;3.10;;;9.50;99.90;;;;;;5077665;28;20572;-65
2024/01/01 12:47:39;;;;;;;6.90;3.17;;;9.50;99.90;;;;;;5077849;28;20446;-65
2024/01/01 12:50:07;;;;;;;4.20;2.30;;;9.60;99.90;;;;;;5077358;28;20834;-65